Time;durP1;ratioP1;P1;durP2;ratioP2;P2;SDS_P1;SDS_P2;PMS_P1;PMS_P2;Temp;Humidity;BMP_temperature;BMP_pressure;BME280_temperature;BME280_humidity;BME280_pressure;Samples;Min_cycle;Max_cycle;Signal;HPM_P1;HPM_P2
2022/04/03 00:01:54;;;;;;;6.03;2.35;;;2.90;99.90;;;;;;4975416;28;20034;-83
2022/04/03 00:04:19;;;;;;;6.43;2.20;;;2.90;99.80;;;;;;4975702;28;20038;-83
2022/04/03 00:06:45;;;;;;;6.15;2.25;;;2.90;99.90;;;;;;4975327;28;20035;-83
2022/04/03 00:09:11;;;;;;;5.25;2.55;;;2.90;99.90;;;;;;4975117;28;20063;-83
2022/04/03 00:11:37;;;;;;;13.73;2.55;;;2.90;99.90;;;;;;4957914;28;20034;-83
2022/04/03 00:14:03;;;;;;;9.52;2.17;;;3.00;99.90;;;;;;4974358;28;20034;-83
2022/04/03 00:16:29;;;;;;;6.45;2.47;;;2.80;99.90;;;;;;4975059;28;20062;-83
2022/04/03 00:18:55;;;;;;;6.63;2.42;;;2.80;99.90;;;;;;4975122;28;20058;-83
2022/04/03 00:21:20;;;;;;;7.43;2.38;;;2.80;99.90;;;;;;4974990;28;20042;-83
2022/04/03 00:23:47;;;;;;;7.53;2.63;;;2.90;99.90;;;;;;4957462;28;20546;-83
2022/04/03 00:26:13;;;;;;;7.97;2.38;;;2.90;99.90;;;;;;4974734;28;20399;-83
2022/04/03 00:28:39;;;;;;;8.65;2.90;;;2.90;99.90;;;;;;4973952;28;20035;-83
2022/04/03 00:31:05;;;;;;;6.75;2.83;;;2.90;99.90;;;;;;4974677;28;20081;-85
2022/04/03 00:33:30;;;;;;;9.38;2.83;;;2.90;99.90;;;;;;4974959;28;20038;-84
2022/04/03 00:35:56;;;;;;;6.68;2.65;;;2.90;99.90;;;;;;4957412;28;20022;-84
2022/04/03 00:38:22;;;;;;;8.75;2.80;;;2.80;99.90;;;;;;4957083;28;20085;-84
2022/04/03 00:40:48;;;;;;;9.75;2.90;;;2.90;99.90;;;;;;4957383;28;20045;-82
2022/04/03 00:43:14;;;;;;;9.23;2.78;;;2.90;99.90;;;;;;4974247;28;20399;-84
2022/04/03 00:45:45;;;;;;;8.57;2.35;;;2.90;99.90;;;;;;4974752;28;20023;-84
2022/04/03 00:48:11;;;;;;;9.38;2.58;;;2.80;99.90;;;;;;4974040;28;20456;-84
2022/04/03 00:50:37;;;;;;;9.80;3.30;;;2.70;99.90;;;;;;4967003;28;20420;-84
2022/04/03 00:53:03;;;;;;;11.05;3.70;;;2.60;99.90;;;;;;4969887;28;20041;-85
2022/04/03 00:55:29;;;;;;;10.90;3.28;;;2.60;99.90;;;;;;4974360;28;20026;-84
2022/04/03 00:57:57;;;;;;;10.02;3.00;;;2.60;99.90;;;;;;4973935;28;20019;-83
2022/04/03 01:00:23;;;;;;;7.88;3.35;;;2.70;99.90;;;;;;4973563;28;20019;-82
2022/04/03 01:02:49;;;;;;;6.90;2.33;;;2.60;99.90;;;;;;4956768;28;20089;-84
2022/04/03 01:05:15;;;;;;;5.40;2.42;;;2.70;99.90;;;;;;4974046;28;20502;-82
2022/04/03 01:07:42;;;;;;;6.60;2.35;;;2.60;99.90;;;;;;4974021;28;20086;-83
2022/04/03 01:10:08;;;;;;;8.77;2.60;;;2.50;99.90;;;;;;4956197;28;20038;-82
2022/04/03 01:12:40;;;;;;;7.88;3.45;;;2.60;99.90;;;;;;4973319;28;20503;-84
2022/04/03 01:15:06;;;;;;;6.85;2.47;;;2.60;99.90;;;;;;4974015;28;20564;-84
2022/04/03 01:17:31;;;;;;;7.53;2.50;;;2.50;99.90;;;;;;4956603;28;20031;-84
2022/04/03 01:19:57;;;;;;;7.63;2.50;;;2.50;99.90;;;;;;4973978;28;20498;-84
2022/04/03 01:22:23;;;;;;;6.50;2.33;;;2.50;99.90;;;;;;4973551;28;20517;-84
2022/04/03 01:24:55;;;;;;;12.55;2.60;;;2.40;99.90;;;;;;4973582;28;20070;-84
2022/04/03 01:27:21;;;;;;;12.52;2.55;;;2.50;99.90;;;;;;4973394;28;20038;-84
2022/04/03 01:29:48;;;;;;;5.03;1.90;;;2.40;99.90;;;;;;4974101;28;20085;-84
2022/04/03 01:32:14;;;;;;;8.48;3.20;;;2.40;99.90;;;;;;4973650;28;20557;-83
2022/04/03 01:34:40;;;;;;;7.15;2.60;;;2.40;99.90;;;;;;4973697;28;20426;-84
2022/04/03 01:37:05;;;;;;;6.22;2.25;;;2.40;99.90;;;;;;4956418;28;20023;-84
2022/04/03 01:39:31;;;;;;;6.13;2.00;;;2.30;99.90;;;;;;4972908;28;20039;-84
2022/04/03 01:41:57;;;;;;;6.82;2.20;;;2.30;99.90;;;;;;4972542;28;20383;-84
2022/04/03 01:44:23;;;;;;;5.38;2.08;;;2.40;99.90;;;;;;4973298;28;20038;-84
2022/04/03 01:46:49;;;;;;;6.32;2.33;;;2.30;99.90;;;;;;4956237;28;20082;-84
2022/04/03 01:49:15;;;;;;;6.18;2.28;;;2.20;99.90;;;;;;4956027;28;20111;-84
2022/04/03 01:51:40;;;;;;;5.55;2.08;;;2.20;99.90;;;;;;4955800;28;20031;-84
2022/04/03 01:54:06;;;;;;;6.05;2.30;;;2.20;99.90;;;;;;4972914;28;20113;-84
2022/04/03 01:56:34;;;;;;;5.80;2.10;;;2.10;99.90;;;;;;4973383;28;20030;-84
2022/04/03 01:59:03;;;;;;;5.68;2.30;;;2.10;99.90;;;;;;4972899;28;20090;-84
2022/04/03 02:01:33;;;;;;;9.70;2.33;;;2.10;99.90;;;;;;4955758;28;20464;-83
2022/04/03 02:04:00;;;;;;;8.85;2.40;;;2.10;99.90;;;;;;4973297;28;20027;-84
2022/04/03 02:06:27;;;;;;;6.53;2.45;;;2.20;99.90;;;;;;4955868;28;20391;-84
2022/04/03 02:08:53;;;;;;;6.85;2.50;;;2.00;99.90;;;;;;4972970;28;20391;-84
2022/04/03 02:11:19;;;;;;;5.95;2.05;;;2.00;99.90;;;;;;4973322;28;20053;-84
2022/04/03 02:13:45;;;;;;;7.65;2.38;;;2.00;99.90;;;;;;4955597;28;20035;-84
2022/04/03 02:16:11;;;;;;;12.07;2.45;;;2.00;99.90;;;;;;4955509;28;20101;-84
2022/04/03 02:18:37;;;;;;;6.35;2.45;;;1.90;99.90;;;;;;4972801;28;20483;-84
2022/04/03 02:21:02;;;;;;;7.20;2.45;;;1.80;99.90;;;;;;4955217;28;20127;-84
2022/04/03 02:23:28;;;;;;;6.47;2.25;;;1.80;99.90;;;;;;4967374;28;20485;-84
2022/04/03 02:25:54;;;;;;;6.55;2.63;;;2.00;99.90;;;;;;4953914;29;20038;-85
2022/04/03 02:28:20;;;;;;;10.68;2.58;;;1.90;99.90;;;;;;4936457;29;20066;-84
2022/04/03 02:30:47;;;;;;;13.45;2.83;;;1.90;99.90;;;;;;4936857;29;20034;-84
2022/04/03 02:33:13;;;;;;;5.43;2.45;;;1.80;99.90;;;;;;4953733;29;20020;-84
2022/04/03 02:35:38;;;;;;;6.97;2.28;;;1.80;99.90;;;;;;4960583;28;20038;-84
2022/04/03 02:38:04;;;;;;;12.10;3.53;;;1.80;99.90;;;;;;4955326;28;20027;-83
2022/04/03 02:40:30;;;;;;;9.10;2.75;;;1.80;99.90;;;;;;4973200;28;20025;-84
2022/04/03 02:42:55;;;;;;;6.05;2.30;;;1.80;99.90;;;;;;4955606;28;20031;-84
2022/04/03 02:45:21;;;;;;;10.80;2.67;;;1.70;99.90;;;;;;4955642;28;20026;-84
2022/04/03 02:47:54;;;;;;;8.18;2.35;;;1.60;99.90;;;;;;4972982;28;20372;-83
2022/04/03 02:50:21;;;;;;;5.03;1.77;;;1.70;99.90;;;;;;4955400;28;20026;-83
2022/04/03 02:52:48;;;;;;;5.28;2.47;;;1.70;99.90;;;;;;4972553;28;20403;-84
2022/04/03 02:55:15;;;;;;;7.50;3.17;;;1.80;99.90;;;;;;4972703;28;20023;-84
2022/04/03 02:57:41;;;;;;;11.07;3.78;;;1.80;99.90;;;;;;4973025;28;20022;-84
2022/04/03 03:00:07;;;;;;;4.50;2.17;;;1.90;99.90;;;;;;4972817;28;20486;-84
2022/04/03 03:02:33;;;;;;;7.10;2.08;;;1.90;99.90;;;;;;4972526;28;20015;-84
2022/04/03 03:04:59;;;;;;;8.38;2.08;;;1.90;99.90;;;;;;4972728;28;20034;-84
2022/04/03 03:07:34;;;;;;;5.07;1.95;;;1.80;99.90;;;;;;4972052;28;20487;-83
2022/04/03 03:10:00;;;;;;;8.32;2.55;;;1.80;99.90;;;;;;4954153;28;20041;-83
2022/04/03 03:12:26;;;;;;;8.25;3.00;;;1.70;99.90;;;;;;4958881;28;20030;-84
2022/04/03 03:14:51;;;;;;;5.78;2.22;;;1.70;99.90;;;;;;4958560;28;20038;-84
2022/04/03 03:17:17;;;;;;;7.80;2.55;;;1.80;99.90;;;;;;4976177;28;20027;-84
2022/04/03 03:19:43;;;;;;;5.63;2.53;;;1.80;99.90;;;;;;4975976;28;20027;-84
2022/04/03 03:22:09;;;;;;;6.32;2.17;;;1.70;99.90;;;;;;4975880;28;20089;-84
2022/04/03 03:24:34;;;;;;;8.18;2.38;;;1.70;99.90;;;;;;4975704;28;20054;-84
2022/04/03 03:27:01;;;;;;;8.75;2.20;;;1.70;99.90;;;;;;4976107;28;20035;-83
2022/04/03 03:29:26;;;;;;;9.40;2.40;;;1.60;99.90;;;;;;4975082;28;20106;-84
2022/04/03 03:31:52;;;;;;;8.52;2.47;;;1.50;99.90;;;;;;4958392;28;20130;-84
2022/04/03 03:34:18;;;;;;;6.80;2.33;;;1.60;99.90;;;;;;4975303;28;20058;-84
2022/04/03 03:36:43;;;;;;;7.82;2.90;;;1.70;99.90;;;;;;4958078;28;20027;-84
2022/04/03 03:39:09;;;;;;;7.25;2.63;;;1.60;99.90;;;;;;4975536;28;20022;-84
2022/04/03 03:41:35;;;;;;;6.65;2.33;;;1.70;99.90;;;;;;4958035;28;20030;-84
2022/04/03 03:44:06;;;;;;;4.68;2.47;;;1.80;99.90;;;;;;4975767;28;20022;-84
2022/04/03 03:46:32;;;;;;;5.85;2.15;;;1.80;99.90;;;;;;4957777;28;20035;-83
2022/04/03 03:48:58;;;;;;;5.45;2.30;;;1.80;99.90;;;;;;4958603;28;20042;-84
2022/04/03 03:51:24;;;;;;;11.27;2.63;;;1.70;99.90;;;;;;4974420;28;20501;-84
2022/04/03 03:53:49;;;;;;;4.22;2.15;;;1.70;99.90;;;;;;4974956;28;20517;-84
2022/04/03 03:56:15;;;;;;;6.30;2.17;;;1.70;99.90;;;;;;4975601;28;20586;-84
2022/04/03 03:58:41;;;;;;;7.18;2.47;;;1.70;99.90;;;;;;4975180;28;20435;-84
2022/04/03 04:01:07;;;;;;;7.03;2.08;;;1.80;99.90;;;;;;4975939;28;20085;-84
2022/04/03 04:03:32;;;;;;;5.50;2.20;;;1.70;99.90;;;;;;4975395;28;20386;-84
2022/04/03 04:05:58;;;;;;;8.60;2.75;;;1.70;99.90;;;;;;4957684;28;20026;-83
2022/04/03 04:08:24;;;;;;;8.55;2.70;;;1.70;99.90;;;;;;4957999;28;20030;-84
2022/04/03 04:10:49;;;;;;;7.10;2.42;;;1.70;99.90;;;;;;4974523;28;20030;-84
2022/04/03 04:13:15;;;;;;;13.10;2.20;;;1.80;99.90;;;;;;4975419;28;20078;-84
2022/04/03 04:15:41;;;;;;;6.63;2.50;;;1.80;99.90;;;;;;4974475;28;20041;-84
2022/04/03 04:18:07;;;;;;;10.70;2.80;;;1.80;99.90;;;;;;4975217;28;20023;-84
2022/04/03 04:20:33;;;;;;;6.57;2.25;;;1.80;99.90;;;;;;4974656;28;20097;-84
2022/04/03 04:22:59;;;;;;;11.23;2.83;;;1.90;99.90;;;;;;4974361;28;20027;-84
2022/04/03 04:25:25;;;;;;;7.13;2.40;;;1.90;99.90;;;;;;4974940;28;20537;-84
2022/04/03 04:27:51;;;;;;;8.20;2.05;;;1.90;99.90;;;;;;4955480;29;20051;-84
2022/04/03 04:30:17;;;;;;;6.85;1.90;;;1.90;99.90;;;;;;4938705;29;20093;-84
2022/04/03 04:32:43;;;;;;;8.10;2.67;;;2.00;99.90;;;;;;4955575;29;20035;-84
2022/04/03 04:35:09;;;;;;;5.30;2.30;;;1.90;99.90;;;;;;4954045;28;20039;-84
2022/04/03 04:37:35;;;;;;;5.75;2.05;;;1.90;99.90;;;;;;4955489;29;20023;-84
2022/04/03 04:40:01;;;;;;;7.28;2.95;;;1.80;99.90;;;;;;4955472;29;20019;-84
2022/04/03 04:42:28;;;;;;;5.28;1.90;;;1.90;99.90;;;;;;4971296;28;20482;-84
2022/04/03 04:44:53;;;;;;;5.80;2.30;;;1.80;99.90;;;;;;4974491;28;20025;-84
2022/04/03 04:47:19;;;;;;;10.52;2.25;;;1.90;99.90;;;;;;4974555;28;20109;-84
2022/04/03 04:49:45;;;;;;;6.93;2.03;;;1.90;99.90;;;;;;4956949;28;20435;-84
2022/04/03 04:52:10;;;;;;;7.53;2.33;;;1.80;99.90;;;;;;4974248;28;20110;-84
2022/04/03 04:54:36;;;;;;;5.53;2.10;;;1.80;99.90;;;;;;4974260;28;20387;-84
2022/04/03 04:57:02;;;;;;;5.65;2.70;;;1.80;99.90;;;;;;4973580;28;20397;-84
2022/04/03 04:59:27;;;;;;;5.65;2.25;;;1.80;99.90;;;;;;4957343;28;20023;-84
2022/04/03 05:01:56;;;;;;;6.85;2.47;;;1.80;99.90;;;;;;4974041;28;20514;-83
2022/04/03 05:04:23;;;;;;;7.47;2.65;;;1.80;99.90;;;;;;4956711;28;20023;-84
2022/04/03 05:06:50;;;;;;;5.78;2.47;;;1.80;99.90;;;;;;4973879;28;20054;-84
2022/04/03 05:09:17;;;;;;;7.32;2.45;;;1.80;99.90;;;;;;4956604;28;20038;-84
2022/04/03 05:11:45;;;;;;;8.32;3.83;;;1.80;99.90;;;;;;4973813;28;20380;-83
2022/04/03 05:14:11;;;;;;;6.72;2.97;;;1.80;99.90;;;;;;4973959;28;20368;-84
2022/04/03 05:16:37;;;;;;;7.15;2.50;;;1.80;99.90;;;;;;4957108;28;20030;-84
2022/04/03 05:19:03;;;;;;;7.35;2.65;;;1.80;99.90;;;;;;4973592;28;20030;-84
2022/04/03 05:21:28;;;;;;;6.45;2.58;;;1.70;99.90;;;;;;4973317;28;20039;-84
2022/04/03 05:23:54;;;;;;;9.30;3.00;;;1.80;99.90;;;;;;4973910;28;20034;-84
2022/04/03 05:26:20;;;;;;;9.45;3.13;;;1.80;99.90;;;;;;4974108;28;20027;-84
2022/04/03 05:28:45;;;;;;;8.80;3.45;;;1.80;99.90;;;;;;4973917;28;20118;-84
2022/04/03 05:31:11;;;;;;;9.43;3.30;;;1.90;99.90;;;;;;4973684;28;20035;-84
2022/04/03 05:33:37;;;;;;;6.55;2.92;;;1.90;99.90;;;;;;4972690;28;20031;-84
2022/04/03 05:36:03;;;;;;;14.65;3.28;;;1.90;99.90;;;;;;4973441;28;20127;-84
2022/04/03 05:38:30;;;;;;;10.18;3.63;;;2.00;99.90;;;;;;4973848;28;20070;-84
2022/04/03 05:40:56;;;;;;;9.65;3.25;;;1.90;99.90;;;;;;4956185;28;20032;-84
2022/04/03 05:43:22;;;;;;;8.35;3.53;;;2.00;99.90;;;;;;4973545;28;20090;-84
2022/04/03 05:45:47;;;;;;;12.27;3.88;;;2.00;99.90;;;;;;4956304;28;20114;-84
2022/04/03 05:48:13;;;;;;;14.15;4.43;;;2.10;99.90;;;;;;4973512;28;20097;-84
2022/04/03 05:50:39;;;;;;;10.68;4.25;;;2.10;99.90;;;;;;4973621;28;20521;-84
2022/04/03 05:53:06;;;;;;;11.18;3.70;;;2.10;99.90;;;;;;4972993;28;20031;-84
2022/04/03 05:55:32;;;;;;;10.10;3.70;;;2.10;99.90;;;;;;4955561;28;20407;-84
2022/04/03 05:57:58;;;;;;;9.50;3.63;;;2.20;99.90;;;;;;4973283;28;20034;-84
2022/04/03 06:00:24;;;;;;;12.38;3.95;;;2.20;99.90;;;;;;4956017;28;20029;-83
2022/04/03 06:03:01;;;;;;;8.45;3.83;;;2.20;99.90;;;;;;4954957;28;20106;-84
2022/04/03 06:05:32;;;;;;;8.82;4.32;;;2.10;99.90;;;;;;4955799;28;20037;-84
2022/04/03 06:07:58;;;;;;;7.20;3.70;;;2.20;99.90;;;;;;4973052;28;20026;-83
2022/04/03 06:10:25;;;;;;;11.00;4.70;;;2.30;99.90;;;;;;4955816;28;20058;-84
2022/04/03 06:13:02;;;;;;;9.13;3.97;;;2.20;99.90;;;;;;4955572;28;20038;-84
2022/04/03 06:15:34;;;;;;;10.13;4.68;;;2.30;99.90;;;;;;4972989;28;20410;-83
2022/04/03 06:18:05;;;;;;;13.63;5.10;;;2.30;99.90;;;;;;4972583;28;20042;-83
2022/04/03 06:20:31;;;;;;;15.10;4.32;;;2.30;99.90;;;;;;4972031;28;20055;-84
2022/04/03 06:22:57;;;;;;;10.65;4.25;;;2.40;99.90;;;;;;4955788;28;20031;-84
2022/04/03 06:25:23;;;;;;;14.77;4.97;;;2.50;99.90;;;;;;4948682;29;20028;-85
2022/04/03 06:27:50;;;;;;;13.70;4.68;;;2.50;99.90;;;;;;4936856;29;20400;-84
2022/04/03 06:30:16;;;;;;;11.32;4.18;;;2.50;99.90;;;;;;4948688;28;20026;-84
2022/04/03 06:32:42;;;;;;;11.48;4.88;;;2.60;99.90;;;;;;4955300;28;20413;-84
2022/04/03 06:35:09;;;;;;;10.93;5.13;;;2.60;99.90;;;;;;4955099;28;20514;-82
2022/04/03 06:37:35;;;;;;;9.70;4.68;;;2.70;99.90;;;;;;4955166;28;20027;-84
2022/04/03 06:40:02;;;;;;;12.15;4.53;;;2.70;99.90;;;;;;4955393;28;20073;-84
2022/04/03 06:42:30;;;;;;;14.55;4.72;;;2.70;99.90;;;;;;4954895;28;20543;-84
2022/04/03 06:44:57;;;;;;;11.93;5.20;;;2.80;99.90;;;;;;4972103;28;20034;-84
2022/04/03 06:47:23;;;;;;;10.85;4.30;;;2.80;99.90;;;;;;4959672;28;20070;-83
2022/04/03 06:49:48;;;;;;;14.00;5.07;;;2.90;99.90;;;;;;4959380;28;20054;-83
2022/04/03 06:52:17;;;;;;;12.65;4.72;;;2.90;99.90;;;;;;4976773;28;20038;-82
2022/04/03 06:54:44;;;;;;;17.65;5.80;;;2.90;99.90;;;;;;4976655;28;20386;-83
2022/04/03 06:57:13;;;;;;;15.65;5.97;;;2.90;99.90;;;;;;4959081;28;20035;-83
2022/04/03 06:59:39;;;;;;;10.48;4.55;;;3.00;99.90;;;;;;4976284;28;20490;-82
2022/04/03 07:02:09;;;;;;;11.27;4.68;;;3.00;99.90;;;;;;4974667;28;20027;-83
2022/04/03 07:04:36;;;;;;;11.43;5.10;;;3.00;99.90;;;;;;4958239;28;20082;-83
2022/04/03 07:07:02;;;;;;;10.85;4.53;;;3.30;99.90;;;;;;4958754;28;20041;-83
2022/04/03 07:09:28;;;;;;;11.65;4.80;;;3.40;99.90;;;;;;4959396;28;20058;-82
2022/04/03 07:11:53;;;;;;;14.38;4.90;;;3.30;99.90;;;;;;4958581;28;20069;-82
2022/04/03 07:14:19;;;;;;;16.17;5.53;;;3.40;99.90;;;;;;4958158;28;20063;-82
2022/04/03 07:16:45;;;;;;;12.57;5.30;;;3.30;99.90;;;;;;4976208;28;20038;-82
2022/04/03 07:19:11;;;;;;;14.82;5.80;;;3.40;99.90;;;;;;4958730;28;20026;-82
2022/04/03 07:21:37;;;;;;;12.07;4.70;;;3.60;99.90;;;;;;4958644;28;20046;-82
2022/04/03 07:24:04;;;;;;;13.85;5.43;;;3.50;99.90;;;;;;4958637;28;20022;-82
2022/04/03 07:26:30;;;;;;;12.32;5.35;;;3.50;99.90;;;;;;4976017;28;20117;-82
2022/04/03 07:28:56;;;;;;;15.55;5.53;;;3.80;99.90;;;;;;4975604;28;20059;-85
2022/04/03 07:31:22;;;;;;;16.73;4.85;;;3.60;99.90;;;;;;4972374;28;20069;-82
2022/04/03 07:33:48;;;;;;;12.02;4.97;;;3.70;99.90;;;;;;4957935;28;20052;-80
2022/04/03 07:36:14;;;;;;;11.48;4.65;;;3.90;99.90;;;;;;4975506;28;20387;-80
2022/04/03 07:38:40;;;;;;;9.90;4.60;;;4.10;99.90;;;;;;4957882;28;20360;-79
2022/04/03 07:41:05;;;;;;;10.27;4.40;;;4.00;99.90;;;;;;4975819;28;20034;-81
2022/04/03 07:43:32;;;;;;;9.18;4.65;;;4.10;99.90;;;;;;4975330;28;20023;-82
2022/04/03 07:45:58;;;;;;;12.43;5.18;;;4.10;99.90;;;;;;4958517;28;20034;-78
2022/04/03 07:48:24;;;;;;;12.13;5.43;;;4.10;99.90;;;;;;4979246;28;20042;-79
2022/04/03 07:50:51;;;;;;;15.13;5.28;;;4.20;99.90;;;;;;4975492;28;20034;-78
2022/04/03 07:53:17;;;;;;;11.10;5.00;;;4.20;99.90;;;;;;4974778;28;20105;-80
2022/04/03 07:55:43;;;;;;;12.05;5.93;;;4.40;99.90;;;;;;4955029;28;20074;-78
2022/04/03 07:58:09;;;;;;;19.17;8.30;;;4.40;99.90;;;;;;4966682;28;20085;-78
2022/04/03 08:00:35;;;;;;;34.95;16.40;;;4.70;99.90;;;;;;4965944;28;20499;-80
2022/04/03 08:03:00;;;;;;;18.27;8.90;;;4.80;99.90;;;;;;4957973;28;20026;-80
2022/04/03 08:05:26;;;;;;;10.48;5.78;;;5.10;99.90;;;;;;4962497;28;20094;-79
2022/04/03 08:07:52;;;;;;;12.57;5.50;;;5.10;99.20;;;;;;4972314;28;20081;-83
2022/04/03 08:10:20;;;;;;;12.57;6.25;;;5.20;98.70;;;;;;4963341;28;20027;-80
2022/04/03 08:12:47;;;;;;;14.52;6.00;;;5.10;98.90;;;;;;4977202;28;20557;-81
2022/04/03 08:15:15;;;;;;;12.68;5.38;;;5.10;97.80;;;;;;4974343;28;20085;-81
2022/04/03 08:17:42;;;;;;;10.73;5.55;;;5.10;98.30;;;;;;4974575;28;20458;-81
2022/04/03 08:20:12;;;;;;;18.08;5.57;;;5.50;98.20;;;;;;4972572;28;20019;-78
2022/04/03 08:22:39;;;;;;;18.67;5.30;;;5.60;95.60;;;;;;4969026;28;20047;-79
2022/04/03 08:25:09;;;;;;;14.60;7.45;;;5.60;94.80;;;;;;4956782;28;20743;-78
2022/04/03 08:27:49;;;;;;;13.40;5.45;;;5.70;94.10;;;;;;4973882;28;20049;-82
2022/04/03 08:30:23;;;;;;;63.92;30.38;;;5.80;93.60;;;;;;4974999;28;20127;-79
2022/04/03 08:32:49;;;;;;;10.57;5.93;;;5.90;92.70;;;;;;4955936;28;20031;-76
2022/04/03 08:35:16;;;;;;;9.25;4.82;;;5.90;93.60;;;;;;4974381;28;20039;-78
2022/04/03 08:37:42;;;;;;;13.05;4.97;;;6.20;93.40;;;;;;4956891;28;20106;-77
2022/04/03 08:40:09;;;;;;;10.50;5.18;;;6.20;91.40;;;;;;4957124;28;20030;-76
2022/04/03 08:42:35;;;;;;;14.35;6.18;;;6.30;91.40;;;;;;4973241;28;20027;-79
2022/04/03 08:45:02;;;;;;;8.43;4.40;;;6.50;91.90;;;;;;4973722;28;20035;-78
2022/04/03 08:47:29;;;;;;;11.73;5.07;;;6.70;87.00;;;;;;4974363;28;20483;-77
2022/04/03 08:49:59;;;;;;;12.35;5.43;;;6.80;83.10;;;;;;4957101;28;20034;-77
2022/04/03 08:52:26;;;;;;;21.65;9.65;;;7.20;80.30;;;;;;4973951;28;20513;-79
2022/04/03 08:54:52;;;;;;;7.43;3.95;;;7.30;75.60;;;;;;4973907;28;20023;-78
2022/04/03 08:57:18;;;;;;;10.95;4.95;;;7.20;76.40;;;;;;4957042;28;20109;-78
2022/04/03 08:59:44;;;;;;;11.18;4.35;;;6.90;75.80;;;;;;4973604;28;20458;-78
2022/04/03 09:02:13;;;;;;;10.50;4.40;;;7.10;76.30;;;;;;4973750;28;20038;-78
2022/04/03 09:04:39;;;;;;;8.52;4.15;;;7.20;74.70;;;;;;4974045;28;20041;-80
2022/04/03 09:07:05;;;;;;;7.45;4.07;;;7.30;76.20;;;;;;4974325;28;20026;-78
2022/04/03 09:09:30;;;;;;;7.93;3.65;;;7.50;74.70;;;;;;4972512;28;20062;-78
2022/04/03 09:12:17;;;;;;;7.75;4.28;;;6.90;72.30;;;;;;4978184;28;20015;-77
2022/04/03 09:14:50;;;;;;;7.30;4.25;;;6.90;72.60;;;;;;4971688;28;20027;-77
2022/04/03 09:17:34;;;;;;;6.50;4.07;;;6.90;72.30;;;;;;4957142;28;20046;-80
2022/04/03 09:20:12;;;;;;;8.43;4.10;;;6.90;70.60;;;;;;4960029;28;20018;-80
2022/04/03 09:22:40;;;;;;;10.77;4.03;;;7.00;70.60;;;;;;4953432;28;20122;-80
2022/04/03 09:25:17;;;;;;;8.65;3.90;;;7.00;71.40;;;;;;4973929;28;20062;-81
2022/04/03 09:27:51;;;;;;;14.15;4.38;;;7.10;73.30;;;;;;4974119;28;20026;-80
2022/04/03 09:30:44;;;;;;;8.05;3.88;;;7.50;72.70;;;;;;4974325;28;20081;-80
2022/04/03 09:33:11;;;;;;;8.70;3.60;;;7.20;69.50;;;;;;4948945;28;20041;-80
2022/04/03 09:36:02;;;;;;;97.57;37.80;;;7.10;70.60;;;;;;4956428;28;20031;-80
2022/04/03 09:38:32;;;;;;;47.30;16.55;;;7.30;69.60;;;;;;4954546;29;20067;-80
2022/04/03 09:40:59;;;;;;;9.13;4.88;;;7.40;67.60;;;;;;4946436;28;20034;-78
2022/04/03 09:43:32;;;;;;;9.20;5.00;;;7.30;68.50;;;;;;4974189;28;20085;-80
2022/04/03 09:46:00;;;;;;;36.65;23.73;;;7.60;68.50;;;;;;4974258;28;20082;-79
2022/04/03 09:48:41;;;;;;;10.68;5.50;;;7.40;68.10;;;;;;4973930;28;20030;-80
2022/04/03 09:51:11;;;;;;;21.42;11.68;;;7.30;69.10;;;;;;4973755;28;20059;-79
2022/04/03 09:53:55;;;;;;;8.07;4.93;;;7.00;68.60;;;;;;4973660;28;20162;-79
2022/04/03 09:56:31;;;;;;;10.88;5.97;;;7.20;68.80;;;;;;4974366;28;20034;-80
2022/04/03 09:59:06;;;;;;;14.75;8.55;;;6.90;67.50;;;;;;4956474;28;20082;-80
2022/04/03 10:01:35;;;;;;;18.15;8.13;;;6.90;68.50;;;;;;4973622;28;20475;-80
2022/04/03 10:04:05;;;;;;;12.30;5.03;;;6.70;67.60;;;;;;4956057;28;20030;-78
2022/04/03 10:06:32;;;;;;;13.88;6.22;;;6.70;68.00;;;;;;4973550;28;20018;-79
2022/04/03 10:08:59;;;;;;;7.50;4.05;;;6.60;69.30;;;;;;4973310;28;20041;-79
2022/04/03 10:11:25;;;;;;;8.60;4.70;;;6.50;70.20;;;;;;4973936;28;20027;-79
2022/04/03 10:13:51;;;;;;;9.02;4.90;;;6.50;70.00;;;;;;4973434;28;20035;-80
2022/04/03 10:16:19;;;;;;;8.40;4.95;;;6.50;72.50;;;;;;4973950;28;20025;-80
2022/04/03 10:18:46;;;;;;;7.95;3.83;;;6.40;71.80;;;;;;4973749;28;20030;-79
2022/04/03 10:21:48;;;;;;;10.75;6.03;;;6.50;72.60;;;;;;4972792;28;20407;-80
2022/04/03 10:24:16;;;;;;;15.45;7.82;;;6.60;73.80;;;;;;4973363;28;20030;-79
2022/04/03 10:26:46;;;;;;;14.65;5.18;;;6.30;73.00;;;;;;4972886;28;20019;-80
2022/04/03 10:29:13;;;;;;;22.80;10.63;;;6.30;72.50;;;;;;4973623;28;20027;-79
2022/04/03 10:31:39;;;;;;;11.93;4.10;;;6.40;73.50;;;;;;4973076;28;20023;-79
2022/04/03 10:34:05;;;;;;;12.52;4.45;;;6.40;72.60;;;;;;4973615;28;20034;-80
2022/04/03 10:36:33;;;;;;;9.90;4.40;;;6.40;70.80;;;;;;4972530;28;20102;-80
2022/04/03 10:39:09;;;;;;;8.65;5.55;;;6.40;71.70;;;;;;4973409;28;20023;-80
2022/04/03 10:41:37;;;;;;;13.27;6.20;;;6.70;71.80;;;;;;4955962;28;20027;-79
2022/04/03 10:44:22;;;;;;;16.92;8.70;;;7.40;71.10;;;;;;4972555;28;20026;-78
2022/04/03 10:47:03;;;;;;;9.45;5.43;;;7.40;69.00;;;;;;4973493;28;20031;-79
2022/04/03 10:49:40;;;;;;;10.43;4.43;;;7.30;69.70;;;;;;4955535;28;20114;-79
2022/04/03 10:52:21;;;;;;;12.32;4.45;;;7.10;67.10;;;;;;4955535;28;20027;-78
2022/04/03 10:54:52;;;;;;;8.93;5.20;;;7.00;66.80;;;;;;4972888;28;20420;-78
2022/04/03 10:57:50;;;;;;;12.18;5.55;;;7.00;68.20;;;;;;4972303;28;20023;-79
2022/04/03 11:00:16;;;;;;;43.28;17.77;;;6.80;67.40;;;;;;4972149;28;20030;-76
2022/04/03 11:02:59;;;;;;;8.52;5.15;;;6.80;68.20;;;;;;4969729;28;20010;-79
2022/04/03 11:05:27;;;;;;;;;;;6.60;68.90;;;;;;4969138;28;20077;-79
2022/04/03 11:08:02;;;;;;;75.07;31.42;;;6.50;71.00;;;;;;4972445;28;19913;-79
2022/04/03 11:10:56;;;;;;;24.45;11.10;;;6.40;71.90;;;;;;4965453;28;20514;-78
2022/04/03 11:13:28;;;;;;;11.10;6.18;;;6.40;71.50;;;;;;4965932;28;20085;-78
2022/04/03 11:15:57;;;;;;;14.10;7.43;;;6.30;72.40;;;;;;4964115;28;20073;-79
2022/04/03 11:18:42;;;;;;;15.68;5.80;;;6.10;73.50;;;;;;4954242;28;20503;-78
2022/04/03 11:21:34;;;;;;;26.40;12.50;;;6.00;74.90;;;;;;4948782;28;20529;-79
2022/04/03 11:24:03;;;;;;;14.77;7.43;;;5.90;75.20;;;;;;4945163;28;20511;-79
2022/04/03 11:26:29;;;;;;;9.43;5.32;;;5.90;76.20;;;;;;4950563;28;20027;-78
2022/04/03 11:28:55;;;;;;;8.20;4.80;;;5.90;76.00;;;;;;4971448;28;20475;-79
2022/04/03 11:31:21;;;;;;;17.58;9.13;;;6.10;76.90;;;;;;4953982;28;20093;-78
2022/04/03 11:33:47;;;;;;;9.85;5.18;;;5.80;77.20;;;;;;4957528;28;20505;-77
2022/04/03 11:36:16;;;;;;;9.95;4.90;;;6.10;78.30;;;;;;4974692;28;20023;-78
2022/04/03 11:38:44;;;;;;;13.15;5.97;;;6.00;77.50;;;;;;4971583;28;20030;-78
2022/04/03 11:41:11;;;;;;;10.82;6.07;;;6.00;76.30;;;;;;4971186;28;20026;-78
2022/04/03 11:43:37;;;;;;;9.70;4.90;;;6.10;74.70;;;;;;4966982;28;20026;-78
2022/04/03 11:46:04;;;;;;;9.25;5.10;;;6.40;74.70;;;;;;4974482;28;20023;-76
2022/04/03 11:48:32;;;;;;;10.57;5.43;;;6.60;75.20;;;;;;4955908;28;21494;-79
2022/04/03 11:51:17;;;;;;;10.50;5.00;;;6.60;74.00;;;;;;4970480;28;20506;-78
2022/04/03 11:53:44;;;;;;;10.25;5.53;;;6.80;75.50;;;;;;4953599;28;20539;-80
2022/04/03 11:56:17;;;;;;;12.88;6.22;;;6.50;74.20;;;;;;4974205;28;20054;-78
2022/04/03 11:58:50;;;;;;;14.60;5.77;;;6.70;75.10;;;;;;4971159;28;20032;-78
2022/04/03 12:01:35;;;;;;;9.32;5.30;;;7.00;75.30;;;;;;4974705;28;20415;-79
2022/04/03 12:04:13;;;;;;;8.57;5.15;;;7.00;74.50;;;;;;4974594;28;20033;-78
2022/04/03 12:06:43;;;;;;;13.55;6.47;;;6.90;73.30;;;;;;4974041;28;20525;-79
2022/04/03 12:09:11;;;;;;;14.25;8.68;;;6.80;72.90;;;;;;4970448;28;20042;-78
2022/04/03 12:11:49;;;;;;;14.20;6.82;;;6.90;73.80;;;;;;4974338;28;20398;-79
2022/04/03 12:14:22;;;;;;;14.93;9.35;;;7.00;74.60;;;;;;4974761;28;20027;-78
2022/04/03 12:16:55;;;;;;;8.30;5.38;;;7.10;75.50;;;;;;4975122;28;20027;-76
2022/04/03 12:19:21;;;;;;;11.32;6.20;;;7.20;74.20;;;;;;4973688;28;20066;-78
2022/04/03 12:21:54;;;;;;;8.00;4.90;;;7.20;74.00;;;;;;4974666;28;20074;-78
2022/04/03 12:24:25;;;;;;;8.77;5.40;;;7.30;72.90;;;;;;4972084;28;20113;-79
2022/04/03 12:26:56;;;;;;;10.02;4.47;;;7.60;72.10;;;;;;4973886;28;20030;-78
2022/04/03 12:29:27;;;;;;;11.80;5.38;;;7.50;66.30;;;;;;4956108;28;20140;-79
2022/04/03 12:32:10;;;;;;;9.82;5.18;;;7.60;67.30;;;;;;4974632;28;20019;-79
2022/04/03 12:34:40;;;;;;;16.90;6.55;;;7.40;67.70;;;;;;4949065;28;20046;-78
2022/04/03 12:37:07;;;;;;;9.88;5.72;;;7.30;69.70;;;;;;4977081;28;20427;-79
2022/04/03 12:39:35;;;;;;;12.25;5.97;;;7.30;69.00;;;;;;4972732;28;20034;-79
2022/04/03 12:42:32;;;;;;;11.25;5.18;;;7.40;68.00;;;;;;4973435;28;20026;-79
2022/04/03 12:45:16;;;;;;;13.23;5.25;;;7.40;67.30;;;;;;4967704;28;20113;-78
2022/04/03 12:47:43;;;;;;;12.25;5.20;;;7.30;69.20;;;;;;4971340;28;20023;-78
2022/04/03 12:50:19;;;;;;;9.15;4.63;;;7.10;69.70;;;;;;4971721;28;20030;-79
2022/04/03 12:52:47;;;;;;;8.85;5.05;;;7.00;70.50;;;;;;4954273;28;20069;-78
2022/04/03 12:55:26;;;;;;;9.00;5.55;;;6.90;70.90;;;;;;4965508;28;20027;-78
2022/04/03 13:00:46;;;;;;;9.35;5.18;;;6.70;72.60;;;;;;4974498;28;20085;-77
2022/04/03 13:03:33;;;;;;;13.80;5.68;;;6.70;74.40;;;;;;4973773;28;20042;-78